Time;durP1;ratioP1;P1;durP2;ratioP2;P2;SDS_P1;SDS_P2;PMS_P1;PMS_P2;Temp;Humidity;BMP_temperature;BMP_pressure;BME280_temperature;BME280_humidity;BME280_pressure;Samples;Min_cycle;Max_cycle;Signal;HPM_P1;HPM_P2
2023/09/19 00:01:45;;;;;;;3.65;2.13;;;15.30;99.90;;;;;;4976147;28;94160;-33
2023/09/19 00:04:14;;;;;;;5.38;2.08;;;15.20;99.90;;;;;;4975009;28;95193;-36
2023/09/19 00:06:40;;;;;;;5.93;2.15;;;15.20;99.90;;;;;;4976310;28;95573;-34
2023/09/19 00:09:10;;;;;;;7.30;2.30;;;15.10;99.90;;;;;;4961683;28;94545;-34
2023/09/19 00:11:37;;;;;;;3.88;1.95;;;15.10;99.90;;;;;;4957346;28;93686;-32
2023/09/19 00:14:02;;;;;;;2.35;1.60;;;15.10;99.90;;;;;;4960725;28;95381;-32
2023/09/19 00:16:28;;;;;;;2.70;1.80;;;15.00;99.90;;;;;;4979476;28;94053;-33
2023/09/19 00:18:55;;;;;;;6.32;2.58;;;15.00;99.90;;;;;;4960612;28;95153;-34
2023/09/19 00:21:20;;;;;;;6.40;1.85;;;14.90;99.90;;;;;;4979897;28;93958;-33
2023/09/19 00:23:46;;;;;;;4.15;1.63;;;14.90;99.90;;;;;;4977105;28;94731;-32
2023/09/19 00:26:12;;;;;;;4.03;1.40;;;14.90;99.90;;;;;;4979345;28;94245;-35
2023/09/19 00:28:39;;;;;;;7.20;1.98;;;14.80;99.90;;;;;;4965184;28;92131;-33
2023/09/19 00:31:08;;;;;;;4.30;1.60;;;14.70;99.90;;;;;;4942048;28;94786;-33
2023/09/19 00:33:34;;;;;;;6.43;2.72;;;14.70;99.90;;;;;;4959961;28;94354;-35
2023/09/19 00:36:01;;;;;;;6.10;2.10;;;14.70;99.90;;;;;;4959389;28;94617;-35
2023/09/19 00:38:27;;;;;;;4.35;1.90;;;14.70;99.90;;;;;;4960768;28;92121;-36
2023/09/19 00:40:54;;;;;;;6.65;2.30;;;14.60;99.90;;;;;;4959352;28;93101;-31
2023/09/19 00:43:20;;;;;;;4.10;1.70;;;14.60;99.90;;;;;;4959177;28;95780;-35
2023/09/19 00:45:49;;;;;;;3.22;1.92;;;14.60;99.90;;;;;;4959246;28;95520;-31
2023/09/19 00:48:16;;;;;;;3.88;1.85;;;14.50;99.90;;;;;;4973729;28;94060;-35
2023/09/19 00:50:43;;;;;;;4.25;2.00;;;14.50;99.90;;;;;;4979316;28;94482;-33
2023/09/19 00:53:13;;;;;;;3.05;1.80;;;14.50;99.90;;;;;;4977267;28;95072;-33
2023/09/19 00:55:40;;;;;;;9.60;2.17;;;14.50;99.90;;;;;;4978753;28;94501;-32
2023/09/19 00:58:08;;;;;;;5.47;2.33;;;14.40;99.90;;;;;;4977835;28;93543;-33
2023/09/19 01:00:34;;;;;;;4.72;1.40;;;14.40;99.90;;;;;;4979309;28;93966;-33
2023/09/19 01:03:03;;;;;;;3.65;2.10;;;14.40;99.90;;;;;;4977484;28;94761;-35
2023/09/19 01:05:29;;;;;;;2.55;1.77;;;14.40;99.90;;;;;;4978276;28;94834;-34
2023/09/19 01:07:55;;;;;;;2.55;1.48;;;14.30;99.90;;;;;;4977120;28;95465;-31
2023/09/19 01:10:22;;;;;;;6.03;1.85;;;14.30;99.90;;;;;;4978281;28;92140;-34
2023/09/19 01:13:01;;;;;;;3.40;1.90;;;14.30;99.90;;;;;;4976764;28;94215;-33
2023/09/19 01:15:44;;;;;;;6.72;3.05;;;14.30;99.90;;;;;;4977664;28;94648;-32
2023/09/19 01:18:31;;;;;;;3.67;1.52;;;14.20;99.90;;;;;;4955465;28;93206;-33
2023/09/19 01:21:21;;;;;;;3.40;1.75;;;14.20;99.90;;;;;;4976998;28;93090;-32
2023/09/19 01:24:08;;;;;;;15.45;2.35;;;14.10;99.90;;;;;;4976713;28;94796;-35
2023/09/19 01:26:33;;;;;;;4.72;2.13;;;;;;;;;;4978807;28;94381;-35
2023/09/19 01:29:29;;;;;;;8.93;3.00;;;14.10;99.90;;;;;;4978186;28;93229;-33
2023/09/19 01:32:01;;;;;;;9.13;2.20;;;14.20;99.90;;;;;;4977343;28;92193;-34
2023/09/19 01:34:27;;;;;;;7.20;2.08;;;14.10;99.90;;;;;;4976930;28;95241;-31
2023/09/19 01:36:52;;;;;;;7.88;2.45;;;14.10;99.90;;;;;;4962677;28;95085;-31
2023/09/19 01:39:19;;;;;;;4.40;2.45;;;14.20;99.90;;;;;;4958801;28;94798;-35
2023/09/19 01:42:09;;;;;;;5.70;2.70;;;14.10;99.90;;;;;;4959348;28;94397;-33
2023/09/19 01:44:49;;;;;;;7.18;3.00;;;14.10;99.90;;;;;;4958455;28;93957;-31
2023/09/19 01:47:35;;;;;;;7.05;3.58;;;14.10;99.90;;;;;;4946119;28;94521;-33
2023/09/19 01:50:19;;;;;;;7.32;4.07;;;14.10;99.90;;;;;;4958190;28;93231;-35
2023/09/19 01:52:57;;;;;;;8.65;2.60;;;14.10;99.90;;;;;;4958721;28;91577;-31
2023/09/19 01:55:26;;;;;;;13.20;3.70;;;14.10;99.90;;;;;;4953975;28;93779;-32
2023/09/19 01:58:07;;;;;;;5.75;3.05;;;14.10;99.90;;;;;;4944610;28;94323;-35
2023/09/19 02:00:36;;;;;;;5.38;3.08;;;14.10;99.90;;;;;;4958001;28;95288;-33
2023/09/19 02:03:02;;;;;;;5.55;2.92;;;14.00;99.90;;;;;;4957938;28;94755;-32
2023/09/19 02:05:28;;;;;;;4.80;3.25;;;14.00;99.90;;;;;;4958181;28;94666;-32
2023/09/19 02:07:55;;;;;;;9.75;2.78;;;14.00;99.90;;;;;;4970299;28;94397;-34
2023/09/19 02:10:22;;;;;;;5.90;3.00;;;14.00;99.90;;;;;;4958539;28;93486;-30
2023/09/19 02:12:48;;;;;;;12.65;3.33;;;14.00;99.90;;;;;;4952910;28;94457;-33
2023/09/19 02:15:15;;;;;;;9.43;4.15;;;13.90;99.90;;;;;;4968772;28;95120;-32
2023/09/19 02:17:45;;;;;;;9.03;3.50;;;13.90;99.90;;;;;;4976974;28;94570;-33
2023/09/19 02:20:14;;;;;;;9.25;3.25;;;13.90;99.90;;;;;;4977085;28;94185;-32
2023/09/19 02:22:41;;;;;;;5.50;2.95;;;13.90;99.90;;;;;;4945652;28;95031;-32
2023/09/19 02:25:08;;;;;;;6.82;3.40;;;13.90;99.90;;;;;;4965227;28;96258;-34
2023/09/19 02:27:34;;;;;;;8.68;4.07;;;13.90;99.90;;;;;;4957339;28;95464;-31
2023/09/19 02:30:03;;;;;;;9.52;3.75;;;13.90;99.90;;;;;;4958212;28;93486;-32
2023/09/19 02:32:31;;;;;;;10.25;3.40;;;13.90;99.90;;;;;;4958083;28;94125;-34
2023/09/19 02:34:57;;;;;;;8.20;3.33;;;13.80;99.90;;;;;;4957549;28;95034;-34
2023/09/19 02:37:23;;;;;;;7.68;3.00;;;13.90;99.90;;;;;;4957975;28;94271;-34
2023/09/19 02:39:49;;;;;;;6.15;3.63;;;13.80;99.90;;;;;;4957397;28;92478;-33
2023/09/19 02:42:14;;;;;;;6.15;3.50;;;13.80;99.90;;;;;;4957493;28;93248;-31
2023/09/19 02:44:40;;;;;;;10.15;3.05;;;13.80;99.90;;;;;;4956668;28;94350;-35
2023/09/19 02:47:06;;;;;;;7.68;3.35;;;13.80;99.90;;;;;;4957998;28;94616;-34
2023/09/19 02:49:32;;;;;;;13.95;3.75;;;13.80;99.90;;;;;;4956663;28;95642;-33
2023/09/19 02:51:59;;;;;;;6.70;3.20;;;13.70;99.90;;;;;;4957594;28;94682;-34
2023/09/19 02:54:25;;;;;;;10.25;3.00;;;13.80;99.90;;;;;;4956492;28;95046;-36
2023/09/19 02:56:50;;;;;;;8.32;3.20;;;13.80;99.90;;;;;;4957510;28;94268;-33
2023/09/19 02:59:16;;;;;;;9.93;3.85;;;13.70;99.90;;;;;;4957842;28;94779;-32
2023/09/19 03:01:47;;;;;;;10.10;3.60;;;13.70;99.90;;;;;;4957308;28;92768;-31
2023/09/19 03:04:13;;;;;;;9.00;3.38;;;13.70;99.90;;;;;;4956793;28;93887;-36
2023/09/19 03:06:39;;;;;;;7.90;3.00;;;13.70;99.90;;;;;;4957895;28;94484;-35
2023/09/19 03:09:12;;;;;;;8.88;2.75;;;13.70;99.90;;;;;;4970201;28;94232;-36
2023/09/19 03:11:39;;;;;;;9.82;3.10;;;13.70;99.90;;;;;;4976914;28;93535;-33
2023/09/19 03:14:05;;;;;;;5.82;2.97;;;13.70;99.90;;;;;;4975108;28;97079;-32
2023/09/19 03:16:31;;;;;;;6.47;3.08;;;13.70;99.90;;;;;;4969042;28;95229;-32
2023/09/19 03:18:58;;;;;;;7.22;3.50;;;13.60;99.90;;;;;;4956179;28;94789;-33
2023/09/19 03:21:24;;;;;;;7.65;3.15;;;13.60;99.90;;;;;;4957701;28;92946;-32
2023/09/19 03:23:49;;;;;;;5.00;3.33;;;13.60;99.90;;;;;;4969945;28;94725;-34
2023/09/19 03:26:15;;;;;;;5.90;3.08;;;13.60;99.90;;;;;;4975982;28;94623;-33
2023/09/19 03:28:42;;;;;;;7.97;3.17;;;13.60;99.90;;;;;;4975256;28;94243;-33
2023/09/19 03:31:08;;;;;;;4.75;3.03;;;13.50;99.90;;;;;;4956608;28;94298;-32
2023/09/19 03:33:34;;;;;;;8.68;3.50;;;13.70;99.90;;;;;;4955934;28;94898;-35
2023/09/19 03:36:04;;;;;;;7.43;3.10;;;13.70;99.90;;;;;;4957207;28;94623;-32
2023/09/19 03:38:31;;;;;;;6.10;3.30;;;;;;;;;;4958602;28;95409;-36
2023/09/19 03:40:57;;;;;;;5.85;2.92;;;;;;;;;;4976298;28;94249;-31
2023/09/19 03:43:23;;;;;;;13.23;3.05;;;;;;;;;;4975225;28;94690;-32
2023/09/19 03:45:50;;;;;;;5.25;3.33;;;;;;;;;;4975584;28;94991;-32
2023/09/19 03:48:17;;;;;;;8.93;4.13;;;;;;;;;;4977752;28;93149;-34
2023/09/19 03:50:45;;;;;;;5.57;2.58;;;;;;;;;;4979394;28;94083;-32
2023/09/19 03:53:12;;;;;;;7.22;3.15;;;;;;;;;;4978534;28;94933;-33
2023/09/19 03:55:41;;;;;;;7.28;2.80;;;;;;;;;;4980081;28;94699;-33
2023/09/19 03:58:07;;;;;;;6.38;3.22;;;;;;;;;;4979437;28;93479;-32
2023/09/19 04:00:34;;;;;;;4.78;2.72;;;;;;;;;;4980013;28;92126;-36
2023/09/19 04:03:02;;;;;;;8.13;3.20;;;;;;;;;;4978504;28;95697;-33
2023/09/19 04:05:28;;;;;;;4.47;3.05;;;;;;;;;;4979389;28;95078;-34
2023/09/19 04:07:54;;;;;;;7.30;3.65;;;;;;;;;;4979469;28;93067;-32
2023/09/19 04:10:20;;;;;;;5.10;2.53;;;;;;;;;;4979044;28;92621;-32
2023/09/19 04:12:56;;;;;;;5.38;3.25;;;;;;;;;;4978689;28;93133;-32
2023/09/19 04:15:22;;;;;;;7.65;3.00;;;;;;;;;;4978736;28;95174;-36
2023/09/19 04:17:49;;;;;;;8.65;3.63;;;;;;;;;;4978558;28;94025;-33
2023/09/19 04:20:15;;;;;;;7.10;2.85;;;;;;;;;;4979123;28;92783;-36
2023/09/19 04:22:42;;;;;;;10.65;3.65;;;;;;;;;;4977283;28;94829;-36
2023/09/19 04:25:08;;;;;;;8.40;4.07;;;;;;;;;;4978987;28;95502;-33
2023/09/19 04:27:34;;;;;;;11.77;3.25;;;;;;;;;;4979054;28;93745;-36
2023/09/19 04:30:09;;;;;;;14.55;3.85;;;;;;;;;;4978887;28;93304;-33
2023/09/19 04:32:36;;;;;;;7.95;3.42;;;;;;;;;;4978572;28;94157;-31
2023/09/19 04:35:05;;;;;;;10.90;3.95;;;;;;;;;;4966767;28;94277;-33
2023/09/19 04:37:31;;;;;;;12.93;3.40;;;;;;;;;;4959551;28;92094;-34
2023/09/19 04:39:57;;;;;;;7.28;3.78;;;;;;;;;;4959311;28;92959;-35
2023/09/19 04:42:25;;;;;;;6.35;2.90;;;;;;;;;;4966354;28;96184;-34
2023/09/19 04:44:54;;;;;;;6.63;3.05;;;;;;;;;;4965026;28;94221;-35
2023/09/19 04:47:22;;;;;;;8.70;3.45;;;;;;;;;;4942667;28;94700;-32
2023/09/19 04:49:48;;;;;;;8.23;3.83;;;;;;;;;;4973823;28;92892;-31
2023/09/19 04:52:15;;;;;;;10.35;3.47;;;;;;;;;;4978429;28;96372;-32
2023/09/19 04:54:41;;;;;;;10.63;4.10;;;;;;;;;;4978119;28;95036;-35
2023/09/19 04:57:07;;;;;;;5.38;3.30;;;;;;;;;;4979181;28;93870;-30
2023/09/19 04:59:33;;;;;;;7.97;3.95;;;;;;;;;;4959309;28;94762;-34
2023/09/19 05:01:59;;;;;;;8.13;3.47;;;;;;;;;;4977726;28;94771;-34
2023/09/19 05:04:25;;;;;;;7.20;3.83;;;;;;;;;;4977179;28;95152;-32
2023/09/19 05:06:52;;;;;;;11.23;3.50;;;;;;;;;;4978463;28;94275;-33
2023/09/19 05:09:19;;;;;;;9.57;3.97;;;;;;;;;;4970237;28;93692;-33
2023/09/19 05:11:46;;;;;;;8.82;3.80;;;;;;;;;;4964506;28;94685;-32
2023/09/19 05:14:12;;;;;;;7.10;3.85;;;;;;;;;;4962911;28;94802;-35
2023/09/19 05:16:38;;;;;;;7.45;3.67;;;;;;;;;;4960566;28;95089;-31
2023/09/19 05:19:04;;;;;;;7.40;3.60;;;;;;;;;;4962637;28;93455;-36
2023/09/19 05:21:31;;;;;;;8.50;3.40;;;;;;;;;;4960576;28;94799;-30
2023/09/19 05:23:57;;;;;;;8.35;3.67;;;;;;;;;;4973659;28;94680;-34
2023/09/19 05:26:23;;;;;;;7.50;3.25;;;;;;;;;;4959233;28;92141;-34
2023/09/19 05:28:49;;;;;;;15.90;4.22;;;;;;;;;;4961193;28;92357;-30
2023/09/19 05:31:16;;;;;;;8.90;2.97;;;;;;;;;;4977420;28;94611;-33
2023/09/19 05:33:43;;;;;;;13.10;3.72;;;;;;;;;;5013769;22;93031;-33
2023/09/19 05:36:11;;;;;;;11.18;3.50;;;;;;;;;;4998567;28;92187;-35
2023/09/19 05:38:41;;;;;;;8.27;3.85;;;;;;;;;;4997354;28;92140;-33
2023/09/19 05:41:09;;;;;;;10.82;3.67;;;;;;;;;;4986530;28;95588;-32
2023/09/19 05:43:37;;;;;;;6.68;2.72;;;;;;;;;;4978008;28;95103;-34
2023/09/19 05:46:03;;;;;;;8.68;3.85;;;;;;;;;;4982281;28;92838;-33
2023/09/19 05:48:29;;;;;;;8.63;3.85;;;;;;;;;;4981387;28;93420;-36
2023/09/19 05:50:55;;;;;;;10.82;3.47;;;;;;;;;;4980487;28;94693;-34
2023/09/19 05:53:23;;;;;;;9.27;2.97;;;;;;;;;;4982217;28;93979;-36
2023/09/19 05:55:49;;;;;;;6.22;4.07;;;;;;;;;;4982514;28;94029;-35
2023/09/19 05:58:17;;;;;;;10.63;3.67;;;;;;;;;;4983014;28;92745;-33
2023/09/19 06:00:44;;;;;;;10.30;4.17;;;;;;;;;;4982996;28;93406;-33
2023/09/19 06:03:13;;;;;;;10.33;3.93;;;;;;;;;;4981452;28;94574;-34
2023/09/19 06:05:41;;;;;;;14.07;3.13;;;;;;;;;;4977976;28;95487;-32
2023/09/19 06:08:07;;;;;;;15.90;3.50;;;;;;;;;;4968818;28;94310;-33
2023/09/19 06:10:37;;;;;;;7.43;3.92;;;;;;;;;;4989384;28;94256;-34
2023/09/19 06:13:09;;;;;;;7.80;3.22;;;;;;;;;;4994443;28;94693;-33
2023/09/19 06:15:35;;;;;;;8.82;3.10;;;;;;;;;;4995338;28;93534;-33
2023/09/19 06:18:04;;;;;;;11.52;4.00;;;;;;;;;;4994477;28;93125;-35
2023/09/19 06:20:31;;;;;;;11.68;3.20;;;;;;;;;;4994311;28;94850;-35
2023/09/19 06:22:57;;;;;;;13.63;4.32;;;;;;;;;;4995299;28;93972;-34
2023/09/19 06:25:23;;;;;;;11.55;3.40;;;;;;;;;;4981484;28;93144;-33
2023/09/19 06:27:52;;;;;;;5.63;3.17;;;;;;;;;;4993559;28;94996;-36
2023/09/19 06:30:18;;;;;;;9.20;3.33;;;;;;;;;;4991869;28;95549;-32
2023/09/19 06:32:44;;;;;;;9.73;3.80;;;;;;;;;;4980148;28;95504;-32
2023/09/19 06:35:11;;;;;;;11.80;3.33;;;;;;;;;;4992939;28;92583;-37
2023/09/19 06:37:40;;;;;;;7.43;3.28;;;;;;;;;;4993631;28;94139;-33
2023/09/19 06:40:14;;;;;;;13.57;3.78;;;;;;;;;;4961330;28;94713;-33
2023/09/19 06:42:41;;;;;;;10.55;3.58;;;;;;;;;;4994778;28;95617;-33
2023/09/19 06:45:07;;;;;;;7.90;3.05;;;;;;;;;;4994560;28;93194;-32
2023/09/19 06:47:33;;;;;;;15.40;4.30;;;;;;;;;;4984942;28;93913;-33
2023/09/19 06:49:59;;;;;;;8.98;3.40;;;;;;;;;;4989876;28;93643;-33
2023/09/19 06:52:27;;;;;;;8.30;3.38;;;;;;;;;;4994128;28;94482;-36
2023/09/19 06:54:53;;;;;;;;;;;;;;;;;;4992639;28;93987;-34
2023/09/19 06:57:19;;;;;;;8.55;3.33;;;;;;;;;;4995824;28;93015;-34
2023/09/19 06:59:46;;;;;;;8.40;2.95;;;;;;;;;;4987029;28;94594;-32
2023/09/19 07:02:13;;;;;;;12.90;3.50;;;;;;;;;;4967998;28;94012;-35
2023/09/19 07:04:40;;;;;;;10.53;3.47;;;;;;;;;;4983692;28;94071;-34
2023/09/19 07:07:08;;;;;;;10.63;3.20;;;;;;;;;;4993789;28;94606;-35
2023/09/19 07:09:34;;;;;;;9.88;3.50;;;;;;;;;;4963041;28;97222;-33
2023/09/19 07:12:00;;;;;;;6.32;2.65;;;;;;;;;;4994654;28;94446;-34
2023/09/19 07:14:27;;;;;;;11.63;3.33;;;;;;;;;;4993902;28;93680;-33
2023/09/19 07:16:54;;;;;;;9.93;3.60;;;;;;;;;;4994136;28;94078;-33
2023/09/19 07:19:21;;;;;;;9.73;4.10;;;;;;;;;;4974525;28;96172;-31
2023/09/19 07:21:50;;;;;;;9.38;3.30;;;;;;;;;;4993956;28;94128;-33
2023/09/19 07:24:16;;;;;;;10.00;2.88;;;;;;;;;;4992392;28;93169;-35
2023/09/19 07:26:42;;;;;;;9.93;3.67;;;;;;;;;;4982626;28;93539;-34
2023/09/19 07:29:08;;;;;;;6.53;3.00;;;;;;;;;;4974030;28;94677;-34
2023/09/19 07:31:34;;;;;;;4.95;3.03;;;;;;;;;;4974219;28;93879;-31
2023/09/19 07:34:00;;;;;;;10.02;3.35;;;;;;;;;;4974882;28;93232;-33
2023/09/19 07:36:29;;;;;;;12.70;3.30;;;;;;;;;;4975349;28;92395;-32
2023/09/19 07:38:57;;;;;;;4.57;2.92;;;;;;;;;;4973921;28;94328;-33
2023/09/19 07:41:23;;;;;;;15.27;3.97;;;;;;;;;;4974944;28;96323;-33
2023/09/19 07:43:49;;;;;;;15.45;3.60;;;;;;;;;;4956998;28;95157;-32
2023/09/19 07:46:16;;;;;;;6.82;3.30;;;;;;;;;;4973947;28;92612;-32
2023/09/19 07:48:47;;;;;;;6.10;3.22;;;15.20;99.90;;;;;;4973524;28;94392;-36
2023/09/19 07:51:15;;;;;;;7.68;4.15;;;15.40;99.90;;;;;;4986649;28;94892;-36
2023/09/19 07:53:42;;;;;;;6.20;2.95;;;15.20;99.90;;;;;;4934147;28;93452;-33
2023/09/19 07:56:09;;;;;;;11.40;3.75;;;15.20;99.90;;;;;;4958578;28;95167;-36
2023/09/19 07:58:38;;;;;;;6.80;3.07;;;15.20;99.90;;;;;;4949261;28;94816;-37
2023/09/19 08:01:09;;;;;;;10.00;3.28;;;15.20;99.90;;;;;;4959657;28;95202;-33
2023/09/19 08:03:39;;;;;;;8.55;2.65;;;15.10;99.90;;;;;;4965900;28;94290;-31
2023/09/19 08:06:06;;;;;;;5.00;2.00;;;15.20;99.90;;;;;;4968527;28;93303;-34
2023/09/19 08:08:34;;;;;;;5.85;3.22;;;15.20;99.90;;;;;;4956517;28;95967;-34
2023/09/19 08:11:01;;;;;;;10.73;4.22;;;15.20;99.90;;;;;;4952941;28;94120;-34
2023/09/19 08:13:26;;;;;;;10.23;3.75;;;15.20;99.90;;;;;;4954858;28;93786;-32
2023/09/19 08:15:53;;;;;;;7.97;3.25;;;15.20;99.90;;;;;;4967591;28;92716;-35
2023/09/19 08:18:19;;;;;;;6.25;3.08;;;15.40;99.90;;;;;;4964104;28;94110;-33
2023/09/19 08:20:52;;;;;;;14.07;4.25;;;15.50;99.90;;;;;;4964223;28;94892;-33
2023/09/19 08:23:19;;;;;;;16.33;3.92;;;15.40;99.90;;;;;;4953681;28;93691;-33
2023/09/19 08:25:46;;;;;;;8.67;3.00;;;15.60;99.90;;;;;;4958096;28;93339;-31
2023/09/19 08:28:14;;;;;;;8.38;3.85;;;15.70;99.90;;;;;;4971681;28;94876;-35
2023/09/19 08:30:40;;;;;;;8.07;3.25;;;15.80;99.90;;;;;;4959483;28;94289;-36
2023/09/19 08:33:07;;;;;;;10.55;3.67;;;15.90;99.90;;;;;;4961871;28;95234;-35
2023/09/19 08:35:33;;;;;;;13.60;3.88;;;16.00;99.90;;;;;;4973615;28;92652;-34
2023/09/19 08:38:03;;;;;;;11.35;3.50;;;15.90;99.90;;;;;;4965563;28;94592;-36
2023/09/19 08:40:33;;;;;;;7.78;2.83;;;16.00;99.90;;;;;;4957349;28;95928;-32
2023/09/19 08:43:00;;;;;;;6.35;3.20;;;15.90;99.90;;;;;;4956874;28;93609;-31
2023/09/19 08:45:29;;;;;;;15.02;4.30;;;16.00;99.90;;;;;;4973466;28;93285;-35
2023/09/19 08:48:20;;;;;;;8.95;3.42;;;15.90;99.90;;;;;;4976635;28;95240;-32
2023/09/19 08:51:01;;;;;;;6.65;3.63;;;15.90;99.90;;;;;;4955870;28;94495;-31
2023/09/19 08:54:04;;;;;;;4.78;2.67;;;15.90;99.90;;;;;;4969984;28;93777;-35
2023/09/19 08:56:31;;;;;;;8.48;3.33;;;15.90;99.90;;;;;;4956792;28;94231;-34
2023/09/19 08:59:03;;;;;;;12.40;3.88;;;15.80;99.90;;;;;;4955159;28;95774;-33
2023/09/19 09:01:29;;;;;;;15.05;5.13;;;15.80;99.90;;;;;;4955308;28;95094;-32
2023/09/19 09:03:56;;;;;;;13.93;3.83;;;15.80;99.90;;;;;;4957182;28;93939;-34
2023/09/19 09:06:23;;;;;;;5.75;3.30;;;15.80;99.90;;;;;;4956313;28;92122;-34
2023/09/19 09:08:52;;;;;;;11.57;3.75;;;15.80;99.90;;;;;;4956275;28;95350;-35
2023/09/19 09:11:18;;;;;;;10.95;4.03;;;15.90;99.90;;;;;;4956534;28;94304;-34
2023/09/19 09:13:45;;;;;;;8.77;4.22;;;15.90;99.90;;;;;;4957066;28;93085;-33
2023/09/19 09:16:13;;;;;;;9.55;3.33;;;15.90;99.90;;;;;;4954761;28;91951;-33
2023/09/19 09:18:39;;;;;;;7.40;3.17;;;16.00;99.90;;;;;;4956673;28;94467;-36
2023/09/19 09:21:05;;;;;;;12.35;3.85;;;16.20;99.90;;;;;;4956245;28;94514;-34
2023/09/19 09:23:34;;;;;;;11.40;4.70;;;16.30;99.90;;;;;;4956577;28;95428;-34
2023/09/19 09:26:02;;;;;;;6.65;3.28;;;16.40;99.90;;;;;;4960918;28;94775;-35
2023/09/19 09:28:30;;;;;;;8.13;3.78;;;16.50;99.90;;;;;;4963774;28;93419;-34
2023/09/19 09:30:58;;;;;;;8.32;4.15;;;16.60;99.90;;;;;;4973457;28;94556;-36
2023/09/19 09:33:24;;;;;;;16.60;4.13;;;16.80;99.90;;;;;;4978410;28;93628;-33
2023/09/19 09:36:00;;;;;;;11.32;4.00;;;16.90;99.90;;;;;;4956473;28;93756;-34
2023/09/19 09:38:31;;;;;;;5.95;3.15;;;16.90;99.90;;;;;;4938445;28;95003;-35
2023/09/19 09:41:06;;;;;;;14.10;4.25;;;17.00;99.90;;;;;;4967284;28;93961;-34
2023/09/19 09:43:40;;;;;;;6.15;3.30;;;17.00;99.90;;;;;;4959645;28;92093;-35
2023/09/19 09:49:15;;;;;;;8.35;3.85;;;17.00;99.90;;;;;;4974856;28;95561;-34
2023/09/19 09:51:45;;;;;;;10.75;3.67;;;17.20;99.90;;;;;;4961979;28;96408;-33
2023/09/19 09:54:15;;;;;;;12.23;3.20;;;17.10;99.90;;;;;;4965819;28;94670;-34
2023/09/19 09:57:00;;;;;;;8.73;4.45;;;17.20;99.90;;;;;;4959389;28;94793;-32
2023/09/19 09:59:47;;;;;;;10.25;3.13;;;17.30;99.90;;;;;;4973451;28;94777;-35
2023/09/19 10:02:36;;;;;;;7.43;3.45;;;17.40;99.90;;;;;;4956059;28;93808;-34
2023/09/19 10:05:22;;;;;;;5.93;3.95;;;17.50;99.90;;;;;;4974829;28;94055;-34
2023/09/19 10:07:53;;;;;;;11.23;4.20;;;17.50;99.90;;;;;;4971718;28;93881;-33
2023/09/19 10:10:53;;;;;;;11.30;3.60;;;17.60;99.90;;;;;;4964604;28;94652;-34
2023/09/19 10:13:25;;;;;;;15.95;4.25;;;17.70;99.90;;;;;;4967399;28;96251;-34
2023/09/19 10:15:54;;;;;;;8.95;3.72;;;17.80;99.90;;;;;;4968787;28;94677;-32
2023/09/19 10:18:22;;;;;;;10.70;3.58;;;17.70;99.90;;;;;;4974240;28;94469;-33
2023/09/19 10:20:51;;;;;;;10.57;4.27;;;17.70;99.90;;;;;;4971493;28;94733;-33
2023/09/19 10:23:23;;;;;;;10.50;4.38;;;17.80;99.90;;;;;;4963983;28;93869;-35
2023/09/19 10:25:49;;;;;;;7.78;3.33;;;17.80;99.90;;;;;;4955603;28;93050;-36
2023/09/19 10:28:21;;;;;;;10.68;4.53;;;17.90;99.90;;;;;;4954063;28;93177;-34
2023/09/19 10:30:49;;;;;;;8.68;4.28;;;18.10;99.90;;;;;;4954055;28;94055;-34
2023/09/19 10:33:17;;;;;;;8.68;3.00;;;18.10;99.90;;;;;;4952943;28;96981;-34
2023/09/19 10:35:45;;;;;;;11.68;4.80;;;18.20;99.90;;;;;;4955681;28;94478;-36
2023/09/19 10:38:18;;;;;;;8.98;3.80;;;18.20;99.90;;;;;;4954722;28;94315;-33
2023/09/19 10:40:47;;;;;;;10.00;3.83;;;18.20;99.90;;;;;;4954629;28;95737;-36
2023/09/19 10:43:20;;;;;;;13.52;4.65;;;18.00;99.90;;;;;;4955267;28;94890;-35
2023/09/19 10:45:49;;;;;;;6.50;3.70;;;17.90;99.90;;;;;;4954533;28;93164;-36
2023/09/19 10:48:19;;;;;;;12.93;4.15;;;18.00;99.90;;;;;;4955492;28;93472;-34
2023/09/19 10:51:07;;;;;;;13.30;4.93;;;18.00;99.90;;;;;;4955606;28;94435;-32
2023/09/19 10:53:42;;;;;;;7.38;3.92;;;18.00;99.90;;;;;;4955218;28;95974;-35
2023/09/19 10:56:17;;;;;;;10.93;3.50;;;17.90;99.90;;;;;;4954988;28;94412;-33
2023/09/19 10:58:44;;;;;;;10.02;3.88;;;17.90;99.90;;;;;;4953395;28;93874;-34
2023/09/19 11:01:18;;;;;;;8.07;3.80;;;18.10;99.90;;;;;;4956713;28;94786;-36
2023/09/19 11:03:44;;;;;;;8.13;3.35;;;18.10;99.90;;;;;;4954301;28;94742;-35
2023/09/19 11:06:18;;;;;;;12.63;4.05;;;18.20;99.90;;;;;;4956880;28;93773;-32
2023/09/19 11:08:57;;;;;;;6.72;3.40;;;18.30;99.90;;;;;;4956005;28;94031;-33
2023/09/19 11:11:39;;;;;;;9.38;3.60;;;18.30;99.90;;;;;;4953658;28;96426;-35
2023/09/19 11:14:23;;;;;;;8.45;4.72;;;18.40;99.90;;;;;;4961698;28;94471;-35
2023/09/19 11:17:15;;;;;;;8.90;4.15;;;18.40;99.90;;;;;;4953399;28;93271;-34
2023/09/19 11:22:50;;;;;;;13.07;3.50;;;18.30;99.90;;;;;;4954043;28;93791;-33
2023/09/19 11:25:31;;;;;;;11.48;3.35;;;18.50;99.90;;;;;;4954901;28;94748;-32
2023/09/19 11:28:12;;;;;;;17.85;5.97;;;18.60;99.90;;;;;;4954804;28;92146;-33
2023/09/19 11:30:39;;;;;;;11.05;3.80;;;18.60;99.90;;;;;;4955570;28;92735;-33
2023/09/19 11:33:20;;;;;;;7.97;3.42;;;18.60;99.90;;;;;;4951811;28;95674;-34
2023/09/19 11:36:15;;;;;;;12.05;3.90;;;18.60;99.90;;;;;;4953836;28;95087;-31
2023/09/19 11:39:07;;;;;;;10.00;3.42;;;18.60;99.90;;;;;;4955148;28;93470;-34
2023/09/19 11:41:40;;;;;;;8.15;3.13;;;18.60;99.90;;;;;;4954561;28;93333;-36
2023/09/19 11:44:06;;;;;;;12.13;4.15;;;18.70;99.90;;;;;;4953785;28;94389;-34
2023/09/19 11:46:33;;;;;;;12.32;3.85;;;18.60;99.90;;;;;;4955685;28;94716;-32
2023/09/19 11:49:31;;;;;;;11.47;4.63;;;18.60;99.90;;;;;;4965750;28;93023;-34
2023/09/19 11:51:56;;;;;;;8.80;3.58;;;18.60;99.90;;;;;;4958333;28;91944;-36
2023/09/19 11:54:22;;;;;;;9.90;3.25;;;18.60;99.90;;;;;;4965674;28;94772;-32
2023/09/19 11:56:53;;;;;;;6.53;2.85;;;18.70;99.90;;;;;;4959712;28;94441;-35
2023/09/19 11:59:24;;;;;;;7.10;3.60;;;18.50;99.90;;;;;;4957735;28;93979;-36
2023/09/19 12:02:08;;;;;;;7.70;2.60;;;18.60;99.90;;;;;;4950354;28;94231;-34
2023/09/19 12:04:43;;;;;;;11.00;3.35;;;18.50;99.90;;;;;;4954585;28;94761;-34
2023/09/19 12:07:16;;;;;;;9.60;3.53;;;18.60;99.90;;;;;;4953802;28;94301;-35
2023/09/19 12:09:50;;;;;;;9.07;3.08;;;18.60;99.90;;;;;;4967465;28;94198;-34
2023/09/19 12:12:29;;;;;;;8.60;3.42;;;18.60;99.90;;;;;;4957401;28;94486;-34
2023/09/19 12:14:58;;;;;;;6.38;2.85;;;18.60;99.90;;;;;;4956546;28;94896;-32
2023/09/19 12:17:35;;;;;;;6.35;2.22;;;18.40;99.90;;;;;;4957854;28;94504;-33
2023/09/19 12:20:12;;;;;;;8.17;3.37;;;18.40;99.90;;;;;;4957084;28;94316;-36
2023/09/19 12:22:43;;;;;;;7.38;2.65;;;18.40;99.90;;;;;;4957691;28;94809;-34
2023/09/19 12:25:11;;;;;;;7.72;3.13;;;18.40;99.90;;;;;;4956593;28;94758;-34
2023/09/19 12:27:52;;;;;;;7.75;3.33;;;18.40;99.90;;;;;;4956662;28;94332;-32
2023/09/19 12:30:20;;;;;;;11.65;3.33;;;18.50;99.90;;;;;;4957689;28;94802;-32
2023/09/19 12:32:47;;;;;;;8.80;2.90;;;18.50;99.90;;;;;;4956904;28;93404;-36
2023/09/19 12:35:28;;;;;;;8.57;3.50;;;18.50;99.90;;;;;;4956565;28;94363;-33
2023/09/19 12:37:55;;;;;;;10.35;3.05;;;18.60;99.90;;;;;;4957574;28;94727;-33
2023/09/19 12:40:22;;;;;;;7.10;3.38;;;18.60;99.90;;;;;;4962433;28;92938;-34
2023/09/19 12:42:49;;;;;;;9.60;3.55;;;18.50;99.90;;;;;;4968529;28;93358;-33
2023/09/19 12:45:17;;;;;;;5.70;2.73;;;18.50;99.90;;;;;;4962199;28;94919;-36
2023/09/19 12:48:29;;;;;;;10.40;2.85;;;18.50;99.90;;;;;;4960857;28;93571;-33
2023/09/19 12:51:10;;;;;;;10.05;3.78;;;18.50;99.90;;;;;;4958872;28;95856;-32
2023/09/19 12:53:42;;;;;;;9.90;3.03;;;18.40;99.90;;;;;;4959414;28;93663;-35
2023/09/19 12:56:09;;;;;;;9.82;3.15;;;18.40;99.90;;;;;;4959222;28;94873;-34
2023/09/19 12:58:53;;;;;;;6.38;3.60;;;18.40;99.90;;;;;;4962015;28;94792;-33
2023/09/19 13:01:19;;;;;;;13.23;3.13;;;18.40;99.90;;;;;;4964682;28;94648;-34
2023/09/19 13:03:45;;;;;;;5.40;2.47;;;18.40;99.90;;;;;;4961971;28;93498;-35
2023/09/19 13:06:12;;;;;;;8.23;2.85;;;18.50;99.90;;;;;;4957569;28;94675;-33
2023/09/19 13:08:41;;;;;;;9.75;3.50;;;18.50;99.90;;;;;;4959220;28;94952;-32
2023/09/19 13:11:17;;;;;;;3.95;2.22;;;18.50;99.90;;;;;;4960182;28;94864;-34
2023/09/19 13:14:11;;;;;;;6.40;2.65;;;18.60;99.90;;;;;;4962913;28;94476;-34
2023/09/19 13:16:58;;;;;;;10.10;3.30;;;18.50;99.90;;;;;;4958325;28;94739;-36
2023/09/19 13:19:36;;;;;;;5.70;2.93;;;18.60;99.90;;;;;;4957958;28;95013;-33
2023/09/19 13:22:02;;;;;;;6.63;3.13;;;18.50;99.90;;;;;;4957834;28;92202;-33
2023/09/19 13:24:29;;;;;;;7.68;3.17;;;18.40;99.90;;;;;;4958697;28;93534;-36
2023/09/19 13:26:55;;;;;;;8.13;2.90;;;18.40;99.90;;;;;;4958491;28;95075;-36
2023/09/19 13:29:21;;;;;;;9.07;2.83;;;18.40;99.90;;;;;;4964799;28;94593;-33
2023/09/19 13:31:52;;;;;;;9.10;3.50;;;18.40;99.90;;;;;;4965229;28;92200;-35
2023/09/19 13:34:19;;;;;;;9.55;2.63;;;18.40;99.90;;;;;;4946840;28;92056;-34
2023/09/19 13:36:48;;;;;;;8.48;3.42;;;18.30;99.90;;;;;;4958157;28;95174;-36
2023/09/19 13:39:15;;;;;;;6.78;3.10;;;18.30;99.90;;;;;;4958760;28;93730;-32